»·PEaware :: N16RD L88-KSBP

N16RD :: L88-KSBP

FLIGHT INFORMATION

Flight Status: Arrived
Operator: Privately registered:
United States
More flights under this callsign
Pilot: Brett B. (12105)
Aircraft: PIPER PA-38 TOMAHAWK
(PA38)
More flights by this aircraft type
Origin: L88 New Cuyama
United States
Destination: KSBP San Luis Co Regl
United States
More flights between these airports :: More routes between these airports
Route: L88 KSBP
File this flight plan on PilotEdge
Remarks:
Altitude:
(Current/Filed)
4,500ft
Speed:
(Current/Filed)
105kts
Departed: 18-Sep-17 05:44 PM
Arrived: 18-Sep-17 06:17 PM
Distance/Time
Traveled:
49nm/0:33
Distance/Time
To Go:
Arrived

Flight Plot

Page will automatically refresh every two minutes.


Map Options




Map Legend


Flown Route
Filed Route
Departure Airport
Arrival Airport
Navaid (VOR, NDB)
Fix

Horizontal Profiles

Position Reports

Time Latitude Longitude Heading Altitude Ground
Speed
18-Sep-17 17:38 34.937493 -119.680069 22 2207ft 0kts
18-Sep-17 17:39 34.937493 -119.680069 22 2207ft 0kts
18-Sep-17 17:40 34.937493 -119.680069 22 2207ft 0kts
18-Sep-17 17:41 34.937493 -119.680069 22 2207ft 0kts
18-Sep-17 17:42 34.937493 -119.680069 22 2207ft 0kts
18-Sep-17 17:43 34.937493 -119.680069 22 2207ft 0kts
18-Sep-17 17:44 34.937493 -119.680069 22 2207ft 0kts
18-Sep-17 17:45 34.937493 -119.680069 22 2207ft 0kts
18-Sep-17 17:46 34.937493 -119.680069 22 2207ft 0kts
18-Sep-17 17:47 34.937929 -119.680550 301 2206ft 30kts
18-Sep-17 17:48 34.947781 -119.703342 312 2476ft 94kts
18-Sep-17 17:49 34.960199 -119.728102 303 3028ft 84kts
18-Sep-17 17:50 34.974335 -119.750766 306 3540ft 80kts
18-Sep-17 17:51 34.985271 -119.775049 294 4029ft 82kts
18-Sep-17 17:52 34.992845 -119.800908 293 4735ft 84kts
18-Sep-17 17:53 35.000802 -119.827122 286 5336ft 80kts
18-Sep-17 17:54 35.006567 -119.852981 277 5881ft 71kts
18-Sep-17 17:55 35.011369 -119.878258 290 6196ft 85kts
18-Sep-17 17:56 35.020753 -119.905104 295 6684ft 95kts
18-Sep-17 17:57 35.033566 -119.933871 298 6630ft 111kts
18-Sep-17 17:58 35.045522 -119.967033 282 6421ft 106kts
18-Sep-17 17:59 35.051655 -120.000889 280 6248ft 103kts
18-Sep-17 18:00 35.055220 -120.033796 279 6609ft 95kts
18-Sep-17 18:01 35.064902 -120.064654 294 6859ft 101kts
18-Sep-17 18:05 35.092803 -120.162015 287 6289ft 102kts
18-Sep-17 18:06 35.100767 -120.194679 289 6245ft 90kts
18-Sep-17 18:07 35.107855 -120.223916 286 6306ft 89kts
18-Sep-17 18:08 35.116160 -120.252970 294 6342ft 89kts
18-Sep-17 18:09 35.127829 -120.279913 294 6723ft 91kts
18-Sep-17 18:10 35.135881 -120.311922 285 6590ft 102kts
18-Sep-17 18:11 35.143355 -120.346778 287 6213ft 104kts
18-Sep-17 18:12 35.151672 -120.380877 293 5466ft 103kts
18-Sep-17 18:13 35.163459 -120.412723 298 4858ft 102kts
18-Sep-17 18:14 35.177364 -120.442697 301 4410ft 101kts
18-Sep-17 18:15 35.179110 -120.447017 296 4358ft 101kts
18-Sep-17 18:19 35.219252 -120.593058 299 1231ft 77kts
18-Sep-17 18:20 35.227026 -120.590352 95 767ft 78kts
18-Sep-17 18:21 35.215580 -120.587069 261 371ft 19kts
18-Sep-17 18:22 35.215536 -120.587490 256 362ft 0kts
18-Sep-17 18:23 35.216848 -120.596877 292 473ft 70kts
18-Sep-17 18:24 35.223847 -120.617403 308 534ft 92kts
18-Sep-17 18:25 35.237773 -120.641702 305 221ft 61kts
18-Sep-17 18:26 35.239477 -120.642933 125 215ft 11kts
18-Sep-17 18:27 35.238394 -120.640104 87 215ft 0kts
18-Sep-17 18:28 35.238394 -120.640104 87 215ft 0kts
18-Sep-17 18:29 35.238394 -120.640104 87 215ft 0kts
18-Sep-17 18:30 35.238394 -120.640104 87 215ft 0kts
18-Sep-17 18:31 35.221838 -120.598844 315 1070ft 61kts
18-Sep-17 18:32 35.223710 -120.584808 163 652ft 72kts
18-Sep-17 18:33 35.215536 -120.587490 256 362ft 0kts
18-Sep-17 18:34 35.215535 -120.587496 256 362ft 0kts
18-Sep-17 18:35 35.219009 -120.605209 289 612ft 84kts
18-Sep-17 18:36 35.226288 -120.621496 306 476ft 89kts

Navigation Log

Ident Type
Flight plan parsing failed, navigation log unavailable